Terminal Aerodrome Forecast
Issued by NWS Greer, SC

Home | Current Version | Previous Version | Text Only | Print | Product List | Glossary On
Versions: 1 2 3 4 5 6 7 8 9 10 11 12 13 14 15 16 17 18 19 20 21 22 23 24 25 26 27 28 29 30 31 32 33 34 35 36 37 38 39 40 41 42 43 44 45 46 47 48 49 50
000
FTUS42 KGSP 012300
TAFAVL
TAF
KAVL 012320Z 0200/0224 20003KT P6SM FEW050 SCT200
     FM020600 00000KT 5SM BR FEW010 SCT150
     FM020800 00000KT 1SM BR BKN008
     FM021000 00000KT 1/2SM FG BKN002
     FM021300 30004KT P6SM SCT010
     FM021600 31005KT P6SM BKN050 PROB30 0220/0224 4SM TSRA
      BKN035CB=

USA.gov is the U.S. government's official web portal to all federal, state and local government web resources and services.